sensor_id;sensor_type;location;lat;lon;timestamp;temperature;humidity
5118;DHT22;2578;51.622;7.046;2023-03-03T00:00:06;2.90;99.90
5118;DHT22;2578;51.622;7.046;2023-03-03T00:02:32;1.60;99.90
5118;DHT22;2578;51.622;7.046;2023-03-03T00:04:58;1.60;99.90
5118;DHT22;2578;51.622;7.046;2023-03-03T00:07:24;1.50;99.90
5118;DHT22;2578;51.622;7.046;2023-03-03T00:09:49;1.60;99.90
5118;DHT22;2578;51.622;7.046;2023-03-03T00:12:25;1.60;99.90
5118;DHT22;2578;51.622;7.046;2023-03-03T00:14:51;1.60;99.90
5118;DHT22;2578;51.622;7.046;2023-03-03T00:19:45;1.70;99.90
5118;DHT22;2578;51.622;7.046;2023-03-03T00:22:34;1.60;99.90
5118;DHT22;2578;51.622;7.046;2023-03-03T00:25:30;1.60;99.90
5118;DHT22;2578;51.622;7.046;2023-03-03T00:28:07;1.50;99.90
5118;DHT22;2578;51.622;7.046;2023-03-03T00:30:40;1.40;99.90
5118;DHT22;2578;51.622;7.046;2023-03-03T00:35:53;1.40;99.90
5118;DHT22;2578;51.622;7.046;2023-03-03T00:38:19;1.40;99.90
5118;DHT22;2578;51.622;7.046;2023-03-03T00:40:45;1.30;99.90
5118;DHT22;2578;51.622;7.046;2023-03-03T00:48:29;1.20;99.90
5118;DHT22;2578;51.622;7.046;2023-03-03T00:50:57;1.20;99.90
5118;DHT22;2578;51.622;7.046;2023-03-03T00:53:28;1.10;99.90
5118;DHT22;2578;51.622;7.046;2023-03-03T00:55:55;1.20;99.90
5118;DHT22;2578;51.622;7.046;2023-03-03T00:58:21;1.20;99.90
5118;DHT22;2578;51.622;7.046;2023-03-03T01:00:49;1.20;99.90
5118;DHT22;2578;51.622;7.046;2023-03-03T01:03:19;1.20;99.90
5118;DHT22;2578;51.622;7.046;2023-03-03T01:05:46;2.30;99.90
5118;DHT22;2578;51.622;7.046;2023-03-03T01:08:12;1.20;99.90
5118;DHT22;2578;51.622;7.046;2023-03-03T01:10:42;1.20;99.90
5118;DHT22;2578;51.622;7.046;2023-03-03T01:13:09;1.20;99.90
5118;DHT22;2578;51.622;7.046;2023-03-03T01:15:35;1.20;99.90
5118;DHT22;2578;51.622;7.046;2023-03-03T01:18:00;1.20;99.90
5118;DHT22;2578;51.622;7.046;2023-03-03T01:20:26;1.20;99.90
5118;DHT22;2578;51.622;7.046;2023-03-03T01:22:52;1.20;99.90
5118;DHT22;2578;51.622;7.046;2023-03-03T01:25:17;1.20;99.90
5118;DHT22;2578;51.622;7.046;2023-03-03T01:27:43;1.50;99.90
5118;DHT22;2578;51.622;7.046;2023-03-03T01:30:12;1.30;99.90
5118;DHT22;2578;51.622;7.046;2023-03-03T01:32:38;1.20;99.90
5118;DHT22;2578;51.622;7.046;2023-03-03T01:35:04;1.20;99.90
5118;DHT22;2578;51.622;7.046;2023-03-03T01:37:30;1.20;99.90
5118;DHT22;2578;51.622;7.046;2023-03-03T01:39:56;1.20;99.90
5118;DHT22;2578;51.622;7.046;2023-03-03T01:42:21;1.20;99.90
5118;DHT22;2578;51.622;7.046;2023-03-03T01:44:47;1.20;99.90
5118;DHT22;2578;51.622;7.046;2023-03-03T01:49:57;1.10;99.90
5118;DHT22;2578;51.622;7.046;2023-03-03T01:52:33;1.20;99.90
5118;DHT22;2578;51.622;7.046;2023-03-03T01:55:03;1.10;99.90
5118;DHT22;2578;51.622;7.046;2023-03-03T01:57:32;1.20;99.90
5118;DHT22;2578;51.622;7.046;2023-03-03T02:00:02;1.10;99.90
5118;DHT22;2578;51.622;7.046;2023-03-03T02:02:31;1.20;99.90
5118;DHT22;2578;51.622;7.046;2023-03-03T02:04:57;1.10;99.90
5118;DHT22;2578;51.622;7.046;2023-03-03T02:07:24;1.20;99.90
5118;DHT22;2578;51.622;7.046;2023-03-03T02:10:13;1.20;99.90
5118;DHT22;2578;51.622;7.046;2023-03-03T02:12:43;1.20;99.90
5118;DHT22;2578;51.622;7.046;2023-03-03T02:17:51;1.10;99.90
5118;DHT22;2578;51.622;7.046;2023-03-03T02:28:27;1.00;99.90
5118;DHT22;2578;51.622;7.046;2023-03-03T02:30:54;1.00;99.90
5118;DHT22;2578;51.622;7.046;2023-03-03T02:33:21;1.00;99.90
5118;DHT22;2578;51.622;7.046;2023-03-03T02:35:46;1.00;99.90
5118;DHT22;2578;51.622;7.046;2023-03-03T02:38:35;1.00;99.90
5118;DHT22;2578;51.622;7.046;2023-03-03T02:41:16;1.00;99.90
5118;DHT22;2578;51.622;7.046;2023-03-03T02:43:55;1.00;99.90
5118;DHT22;2578;51.622;7.046;2023-03-03T02:46:23;1.00;99.90
5118;DHT22;2578;51.622;7.046;2023-03-03T02:48:49;1.00;99.90
5118;DHT22;2578;51.622;7.046;2023-03-03T02:51:14;1.00;99.90
5118;DHT22;2578;51.622;7.046;2023-03-03T02:53:40;1.00;99.90
5118;DHT22;2578;51.622;7.046;2023-03-03T02:56:06;1.10;99.90
5118;DHT22;2578;51.622;7.046;2023-03-03T02:58:34;1.10;99.90
5118;DHT22;2578;51.622;7.046;2023-03-03T03:01:00;1.10;99.90
5118;DHT22;2578;51.622;7.046;2023-03-03T03:03:26;1.20;99.90
5118;DHT22;2578;51.622;7.046;2023-03-03T03:05:52;1.00;99.90
5118;DHT22;2578;51.622;7.046;2023-03-03T03:08:17;1.00;99.90
5118;DHT22;2578;51.622;7.046;2023-03-03T03:10:43;0.90;99.90
5118;DHT22;2578;51.622;7.046;2023-03-03T03:13:09;0.90;99.90
5118;DHT22;2578;51.622;7.046;2023-03-03T03:15:35;1.00;99.90
5118;DHT22;2578;51.622;7.046;2023-03-03T03:18:00;0.90;99.90
5118;DHT22;2578;51.622;7.046;2023-03-03T03:20:26;0.90;99.90
5118;DHT22;2578;51.622;7.046;2023-03-03T03:22:52;0.90;99.90
5118;DHT22;2578;51.622;7.046;2023-03-03T03:25:17;0.90;99.90
5118;DHT22;2578;51.622;7.046;2023-03-03T03:27:43;1.00;99.90
5118;DHT22;2578;51.622;7.046;2023-03-03T03:30:10;0.90;99.90
5118;DHT22;2578;51.622;7.046;2023-03-03T03:32:35;0.90;99.90
5118;DHT22;2578;51.622;7.046;2023-03-03T03:35:01;1.00;99.90
5118;DHT22;2578;51.622;7.046;2023-03-03T03:37:27;1.00;99.90
5118;DHT22;2578;51.622;7.046;2023-03-03T03:39:53;1.00;99.90
5118;DHT22;2578;51.622;7.046;2023-03-03T03:42:18;1.00;99.90
5118;DHT22;2578;51.622;7.046;2023-03-03T03:44:44;1.00;99.90
5118;DHT22;2578;51.622;7.046;2023-03-03T03:47:10;1.00;99.90
5118;DHT22;2578;51.622;7.046;2023-03-03T03:49:35;1.10;99.90
5118;DHT22;2578;51.622;7.046;2023-03-03T03:52:01;1.10;99.90
5118;DHT22;2578;51.622;7.046;2023-03-03T03:54:27;1.10;99.90
5118;DHT22;2578;51.622;7.046;2023-03-03T03:56:53;1.10;99.90
5118;DHT22;2578;51.622;7.046;2023-03-03T03:59:19;1.00;99.90
5118;DHT22;2578;51.622;7.046;2023-03-03T04:01:45;1.00;99.90
5118;DHT22;2578;51.622;7.046;2023-03-03T04:04:12;1.00;99.90
5118;DHT22;2578;51.622;7.046;2023-03-03T04:06:38;1.00;99.90
5118;DHT22;2578;51.622;7.046;2023-03-03T04:09:04;1.00;99.90
5118;DHT22;2578;51.622;7.046;2023-03-03T04:11:30;1.00;99.90
5118;DHT22;2578;51.622;7.046;2023-03-03T04:13:55;1.00;99.90
5118;DHT22;2578;51.622;7.046;2023-03-03T04:16:21;1.00;99.90
5118;DHT22;2578;51.622;7.046;2023-03-03T04:18:47;1.00;99.90
5118;DHT22;2578;51.622;7.046;2023-03-03T04:21:13;1.00;99.90
5118;DHT22;2578;51.622;7.046;2023-03-03T04:23:39;1.00;99.90
5118;DHT22;2578;51.622;7.046;2023-03-03T04:26:05;1.00;99.90
5118;DHT22;2578;51.622;7.046;2023-03-03T04:28:31;1.00;99.90
5118;DHT22;2578;51.622;7.046;2023-03-03T04:30:56;0.90;99.90
5118;DHT22;2578;51.622;7.046;2023-03-03T04:33:22;1.00;99.90
5118;DHT22;2578;51.622;7.046;2023-03-03T04:35:48;0.90;99.90
5118;DHT22;2578;51.622;7.046;2023-03-03T04:38:13;1.00;99.90
5118;DHT22;2578;51.622;7.046;2023-03-03T04:40:40;1.00;99.90
5118;DHT22;2578;51.622;7.046;2023-03-03T04:43:06;1.00;99.90
5118;DHT22;2578;51.622;7.046;2023-03-03T04:45:32;1.10;99.90
5118;DHT22;2578;51.622;7.046;2023-03-03T04:47:57;1.10;99.90
5118;DHT22;2578;51.622;7.046;2023-03-03T04:50:23;1.10;99.90
5118;DHT22;2578;51.622;7.046;2023-03-03T04:52:49;1.10;99.90
5118;DHT22;2578;51.622;7.046;2023-03-03T04:55:15;1.10;99.90
5118;DHT22;2578;51.622;7.046;2023-03-03T04:57:41;1.10;99.90
5118;DHT22;2578;51.622;7.046;2023-03-03T05:00:09;1.10;99.90
5118;DHT22;2578;51.622;7.046;2023-03-03T05:02:35;1.20;99.90
5118;DHT22;2578;51.622;7.046;2023-03-03T05:05:00;1.20;99.90
5118;DHT22;2578;51.622;7.046;2023-03-03T05:07:26;1.20;99.90
5118;DHT22;2578;51.622;7.046;2023-03-03T05:09:52;1.10;99.90
5118;DHT22;2578;51.622;7.046;2023-03-03T05:12:17;1.10;99.90
5118;DHT22;2578;51.622;7.046;2023-03-03T05:14:43;1.10;99.90
5118;DHT22;2578;51.622;7.046;2023-03-03T05:17:08;1.00;99.90
5118;DHT22;2578;51.622;7.046;2023-03-03T05:19:34;1.00;99.90
5118;DHT22;2578;51.622;7.046;2023-03-03T05:22:00;1.10;99.90
5118;DHT22;2578;51.622;7.046;2023-03-03T05:24:26;1.00;99.90
5118;DHT22;2578;51.622;7.046;2023-03-03T05:26:52;1.10;99.90
5118;DHT22;2578;51.622;7.046;2023-03-03T05:29:18;1.10;99.90
5118;DHT22;2578;51.622;7.046;2023-03-03T05:31:43;2.20;99.90
5118;DHT22;2578;51.622;7.046;2023-03-03T05:34:09;1.20;99.90
5118;DHT22;2578;51.622;7.046;2023-03-03T05:36:35;1.10;99.90
5118;DHT22;2578;51.622;7.046;2023-03-03T05:39:00;1.10;99.90
5118;DHT22;2578;51.622;7.046;2023-03-03T05:41:26;1.10;99.90
5118;DHT22;2578;51.622;7.046;2023-03-03T05:43:51;1.10;99.90
5118;DHT22;2578;51.622;7.046;2023-03-03T05:46:17;1.10;99.90
5118;DHT22;2578;51.622;7.046;2023-03-03T05:48:43;1.10;99.90
5118;DHT22;2578;51.622;7.046;2023-03-03T05:51:09;1.10;99.90
5118;DHT22;2578;51.622;7.046;2023-03-03T05:53:35;1.10;99.90
5118;DHT22;2578;51.622;7.046;2023-03-03T05:56:01;1.20;99.90
5118;DHT22;2578;51.622;7.046;2023-03-03T05:58:27;1.20;99.90
5118;DHT22;2578;51.622;7.046;2023-03-03T06:00:53;1.30;99.90
5118;DHT22;2578;51.622;7.046;2023-03-03T06:03:18;1.30;99.90
5118;DHT22;2578;51.622;7.046;2023-03-03T06:05:44;3.00;99.90
5118;DHT22;2578;51.622;7.046;2023-03-03T06:08:10;1.30;99.90
5118;DHT22;2578;51.622;7.046;2023-03-03T06:10:35;1.30;99.90
5118;DHT22;2578;51.622;7.046;2023-03-03T06:13:01;1.30;99.90
5118;DHT22;2578;51.622;7.046;2023-03-03T06:15:26;1.30;99.90
5118;DHT22;2578;51.622;7.046;2023-03-03T06:17:52;1.30;99.90
5118;DHT22;2578;51.622;7.046;2023-03-03T06:20:18;1.30;99.90
5118;DHT22;2578;51.622;7.046;2023-03-03T06:22:43;1.20;99.90
5118;DHT22;2578;51.622;7.046;2023-03-03T06:25:09;1.20;99.90
5118;DHT22;2578;51.622;7.046;2023-03-03T06:27:35;1.20;99.90
5118;DHT22;2578;51.622;7.046;2023-03-03T06:30:01;0.90;99.90
5118;DHT22;2578;51.622;7.046;2023-03-03T06:32:26;1.20;99.90
5118;DHT22;2578;51.622;7.046;2023-03-03T06:34:52;1.20;99.90
5118;DHT22;2578;51.622;7.046;2023-03-03T06:37:18;1.20;99.90
5118;DHT22;2578;51.622;7.046;2023-03-03T06:39:43;1.20;99.90
5118;DHT22;2578;51.622;7.046;2023-03-03T06:42:09;1.20;99.90
5118;DHT22;2578;51.622;7.046;2023-03-03T06:44:35;1.30;99.90
5118;DHT22;2578;51.622;7.046;2023-03-03T06:47:01;1.30;99.90
5118;DHT22;2578;51.622;7.046;2023-03-03T06:49:27;1.30;99.90
5118;DHT22;2578;51.622;7.046;2023-03-03T06:51:52;1.30;99.90
5118;DHT22;2578;51.622;7.046;2023-03-03T06:54:20;1.30;99.90
5118;DHT22;2578;51.622;7.046;2023-03-03T06:56:49;1.20;99.90
5118;DHT22;2578;51.622;7.046;2023-03-03T06:59:19;1.30;99.90
5118;DHT22;2578;51.622;7.046;2023-03-03T07:01:47;1.20;99.90
5118;DHT22;2578;51.622;7.046;2023-03-03T07:06:57;1.30;99.90
5118;DHT22;2578;51.622;7.046;2023-03-03T07:09:28;1.30;99.90
5118;DHT22;2578;51.622;7.046;2023-03-03T07:12:05;1.40;99.90
5118;DHT22;2578;51.622;7.046;2023-03-03T07:14:31;1.40;99.90
5118;DHT22;2578;51.622;7.046;2023-03-03T07:17:00;1.30;99.90
5118;DHT22;2578;51.622;7.046;2023-03-03T07:19:33;1.40;99.90
5118;DHT22;2578;51.622;7.046;2023-03-03T07:22:21;1.40;99.90
5118;DHT22;2578;51.622;7.046;2023-03-03T07:24:51;1.40;99.90
5118;DHT22;2578;51.622;7.046;2023-03-03T07:27:26;1.40;99.90
5118;DHT22;2578;51.622;7.046;2023-03-03T07:29:54;1.40;99.90
5118;DHT22;2578;51.622;7.046;2023-03-03T07:32:27;1.50;99.90
5118;DHT22;2578;51.622;7.046;2023-03-03T07:34:55;1.50;99.90
5118;DHT22;2578;51.622;7.046;2023-03-03T07:37:36;1.50;99.90
5118;DHT22;2578;51.622;7.046;2023-03-03T07:40:35;1.40;99.90
5118;DHT22;2578;51.622;7.046;2023-03-03T07:45:43;1.50;99.90
5118;DHT22;2578;51.622;7.046;2023-03-03T07:50:39;1.50;99.90
5118;DHT22;2578;51.622;7.046;2023-03-03T07:53:13;1.40;99.90
5118;DHT22;2578;51.622;7.046;2023-03-03T07:55:39;1.40;99.90
5118;DHT22;2578;51.622;7.046;2023-03-03T07:58:20;1.40;99.90
5118;DHT22;2578;51.622;7.046;2023-03-03T08:03:50;1.40;99.90
5118;DHT22;2578;51.622;7.046;2023-03-03T08:11:48;1.40;99.90
5118;DHT22;2578;51.622;7.046;2023-03-03T08:14:29;1.50;99.90
5118;DHT22;2578;51.622;7.046;2023-03-03T08:16:56;1.50;99.90
5118;DHT22;2578;51.622;7.046;2023-03-03T08:19:23;1.60;99.90
5118;DHT22;2578;51.622;7.046;2023-03-03T08:21:48;1.70;99.90
5118;DHT22;2578;51.622;7.046;2023-03-03T08:24:14;1.70;99.90
5118;DHT22;2578;51.622;7.046;2023-03-03T08:26:39;1.80;99.90
5118;DHT22;2578;51.622;7.046;2023-03-03T08:29:05;1.90;99.90
5118;DHT22;2578;51.622;7.046;2023-03-03T08:31:31;1.80;99.90
5118;DHT22;2578;51.622;7.046;2023-03-03T08:33:56;1.90;99.90
5118;DHT22;2578;51.622;7.046;2023-03-03T08:36:23;1.90;99.90
5118;DHT22;2578;51.622;7.046;2023-03-03T08:38:50;1.90;99.90
5118;DHT22;2578;51.622;7.046;2023-03-03T08:41:15;1.90;99.90
5118;DHT22;2578;51.622;7.046;2023-03-03T08:43:41;1.80;99.90
5118;DHT22;2578;51.622;7.046;2023-03-03T08:46:10;1.90;99.90
5118;DHT22;2578;51.622;7.046;2023-03-03T08:48:36;1.80;99.90
5118;DHT22;2578;51.622;7.046;2023-03-03T08:51:02;1.90;99.90
5118;DHT22;2578;51.622;7.046;2023-03-03T08:53:28;2.00;99.90
5118;DHT22;2578;51.622;7.046;2023-03-03T08:55:55;2.00;99.90
5118;DHT22;2578;51.622;7.046;2023-03-03T08:58:21;2.00;99.90
5118;DHT22;2578;51.622;7.046;2023-03-03T09:00:46;2.00;99.90
5118;DHT22;2578;51.622;7.046;2023-03-03T09:03:12;3.70;99.90
5118;DHT22;2578;51.622;7.046;2023-03-03T09:05:39;1.90;99.90
5118;DHT22;2578;51.622;7.046;2023-03-03T09:08:21;1.90;99.90
5118;DHT22;2578;51.622;7.046;2023-03-03T09:10:53;1.90;99.90
5118;DHT22;2578;51.622;7.046;2023-03-03T09:13:20;1.90;99.90
5118;DHT22;2578;51.622;7.046;2023-03-03T09:15:46;1.90;99.90
5118;DHT22;2578;51.622;7.046;2023-03-03T09:18:20;2.00;99.90
5118;DHT22;2578;51.622;7.046;2023-03-03T09:20:50;2.00;99.90
5118;DHT22;2578;51.622;7.046;2023-03-03T09:25:45;2.00;99.90
5118;DHT22;2578;51.622;7.046;2023-03-03T09:28:28;2.00;99.90
5118;DHT22;2578;51.622;7.046;2023-03-03T09:30:57;2.10;99.90
5118;DHT22;2578;51.622;7.046;2023-03-03T09:33:52;2.10;99.90
5118;DHT22;2578;51.622;7.046;2023-03-03T09:36:28;2.00;99.90
5118;DHT22;2578;51.622;7.046;2023-03-03T09:38:57;1.90;99.90
5118;DHT22;2578;51.622;7.046;2023-03-03T09:44:29;2.10;99.90
5118;DHT22;2578;51.622;7.046;2023-03-03T09:52:41;2.40;99.90
5118;DHT22;2578;51.622;7.046;2023-03-03T10:06:47;2.30;99.90
5118;DHT22;2578;51.622;7.046;2023-03-03T10:23:09;2.70;99.90
5118;DHT22;2578;51.622;7.046;2023-03-03T10:39:35;3.10;99.90
5118;DHT22;2578;51.622;7.046;2023-03-03T10:42:20;3.10;99.90
5118;DHT22;2578;51.622;7.046;2023-03-03T10:47:25;3.30;99.90
5118;DHT22;2578;51.622;7.046;2023-03-03T10:56:21;3.40;99.90
5118;DHT22;2578;51.622;7.046;2023-03-03T11:07:21;4.20;99.90
5118;DHT22;2578;51.622;7.046;2023-03-03T11:13:17;4.10;99.90
5118;DHT22;2578;51.622;7.046;2023-03-03T11:18:34;4.20;99.90
5118;DHT22;2578;51.622;7.046;2023-03-03T11:21:25;4.50;99.90
5118;DHT22;2578;51.622;7.046;2023-03-03T11:29:42;5.00;99.90
5118;DHT22;2578;51.622;7.046;2023-03-03T11:35:05;5.20;99.90
5118;DHT22;2578;51.622;7.046;2023-03-03T11:37:43;5.30;99.90
5118;DHT22;2578;51.622;7.046;2023-03-03T11:40:20;5.30;99.90
5118;DHT22;2578;51.622;7.046;2023-03-03T11:45:41;5.30;99.90
5118;DHT22;2578;51.622;7.046;2023-03-03T11:48:21;5.40;99.90
5118;DHT22;2578;51.622;7.046;2023-03-03T11:50:57;5.30;99.90
5118;DHT22;2578;51.622;7.046;2023-03-03T11:53:42;5.30;99.90
5118;DHT22;2578;51.622;7.046;2023-03-03T11:59:25;5.40;99.90
5118;DHT22;2578;51.622;7.046;2023-03-03T12:04:56;5.90;99.90
5118;DHT22;2578;51.622;7.046;2023-03-03T12:10:36;7.00;99.90
5118;DHT22;2578;51.622;7.046;2023-03-03T12:15:56;8.40;91.60
5118;DHT22;2578;51.622;7.046;2023-03-03T12:18:39;8.20;88.90
5118;DHT22;2578;51.622;7.046;2023-03-03T12:32:56;10.00;31.90
5118;DHT22;2578;51.622;7.046;2023-03-03T12:35:35;10.20;19.60
5118;DHT22;2578;51.622;7.046;2023-03-03T12:41:26;10.30;13.00
5118;DHT22;2578;51.622;7.046;2023-03-03T12:44:01;10.30;13.50
5118;DHT22;2578;51.622;7.046;2023-03-03T12:49:04;10.40;7.70
5118;DHT22;2578;51.622;7.046;2023-03-03T12:57:03;9.90;13.10
5118;DHT22;2578;51.622;7.046;2023-03-03T13:02:37;9.90;9.70
5118;DHT22;2578;51.622;7.046;2023-03-03T13:08:20;11.50;8.60
5118;DHT22;2578;51.622;7.046;2023-03-03T13:13:59;13.00;1.00
5118;DHT22;2578;51.622;7.046;2023-03-03T13:16:37;13.50;1.00
5118;DHT22;2578;51.622;7.046;2023-03-03T13:19:19;13.90;1.00
5118;DHT22;2578;51.622;7.046;2023-03-03T13:22:40;12.40;1.00
5118;DHT22;2578;51.622;7.046;2023-03-03T13:27:35;12.40;1.00
5118;DHT22;2578;51.622;7.046;2023-03-03T13:30:03;12.60;1.00
5118;DHT22;2578;51.622;7.046;2023-03-03T13:32:42;12.50;1.00
5118;DHT22;2578;51.622;7.046;2023-03-03T13:35:32;12.70;1.00
5118;DHT22;2578;51.622;7.046;2023-03-03T13:38:05;12.90;1.00
5118;DHT22;2578;51.622;7.046;2023-03-03T13:43:07;12.80;1.00
5118;DHT22;2578;51.622;7.046;2023-03-03T13:45:53;12.30;1.00
5118;DHT22;2578;51.622;7.046;2023-03-03T13:54:05;12.40;1.00
5118;DHT22;2578;51.622;7.046;2023-03-03T13:57:09;11.90;1.00
5118;DHT22;2578;51.622;7.046;2023-03-03T14:05:37;12.70;1.00
5118;DHT22;2578;51.622;7.046;2023-03-03T14:25:08;12.90;1.00
5118;DHT22;2578;51.622;7.046;2023-03-03T14:27:37;13.20;1.00
5118;DHT22;2578;51.622;7.046;2023-03-03T14:30:30;13.00;1.00
5118;DHT22;2578;51.622;7.046;2023-03-03T14:35:36;12.80;1.00
5118;DHT22;2578;51.622;7.046;2023-03-03T14:38:16;11.90;1.00
5118;DHT22;2578;51.622;7.046;2023-03-03T14:40:44;11.60;1.00
5118;DHT22;2578;51.622;7.046;2023-03-03T14:43:25;11.70;1.00
5118;DHT22;2578;51.622;7.046;2023-03-03T14:45:52;11.90;1.00
5118;DHT22;2578;51.622;7.046;2023-03-03T14:48:27;12.30;1.00
5118;DHT22;2578;51.622;7.046;2023-03-03T14:51:12;13.50;1.00
5118;DHT22;2578;51.622;7.046;2023-03-03T14:53:44;13.50;1.00
5118;DHT22;2578;51.622;7.046;2023-03-03T14:56:28;14.20;1.00
5118;DHT22;2578;51.622;7.046;2023-03-03T15:01:38;12.70;1.00
5118;DHT22;2578;51.622;7.046;2023-03-03T15:04:24;12.80;1.00
5118;DHT22;2578;51.622;7.046;2023-03-03T15:06:53;12.50;1.00
5118;DHT22;2578;51.622;7.046;2023-03-03T15:09:20;12.60;1.00
5118;DHT22;2578;51.622;7.046;2023-03-03T15:11:51;12.10;1.00
5118;DHT22;2578;51.622;7.046;2023-03-03T15:14:19;11.40;1.00
5118;DHT22;2578;51.622;7.046;2023-03-03T15:16:45;10.80;23.50
5118;DHT22;2578;51.622;7.046;2023-03-03T15:19:21;10.20;42.60
5118;DHT22;2578;51.622;7.046;2023-03-03T15:22:03;9.90;22.80
5118;DHT22;2578;51.622;7.046;2023-03-03T15:27:46;8.90;93.70
5118;DHT22;2578;51.622;7.046;2023-03-03T15:30:29;8.70;97.20
5118;DHT22;2578;51.622;7.046;2023-03-03T15:33:34;8.80;99.90
5118;DHT22;2578;51.622;7.046;2023-03-03T15:36:12;8.90;83.10
5118;DHT22;2578;51.622;7.046;2023-03-03T15:39:27;9.10;83.40
5118;DHT22;2578;51.622;7.046;2023-03-03T15:42:12;9.00;84.10
5118;DHT22;2578;51.622;7.046;2023-03-03T16:03:32;7.60;99.90
5118;DHT22;2578;51.622;7.046;2023-03-03T16:06:10;7.40;99.90
5118;DHT22;2578;51.622;7.046;2023-03-03T16:19:33;7.00;99.90
5118;DHT22;2578;51.622;7.046;2023-03-03T16:24:54;6.90;99.90
5118;DHT22;2578;51.622;7.046;2023-03-03T16:27:34;7.00;99.90
5118;DHT22;2578;51.622;7.046;2023-03-03T16:32:50;7.30;99.90
5118;DHT22;2578;51.622;7.046;2023-03-03T16:35:23;6.80;99.90
5118;DHT22;2578;51.622;7.046;2023-03-03T16:38:00;7.50;99.90
5118;DHT22;2578;51.622;7.046;2023-03-03T16:40:30;7.60;99.90
5118;DHT22;2578;51.622;7.046;2023-03-03T16:45:37;7.40;99.90
5118;DHT22;2578;51.622;7.046;2023-03-03T16:48:20;7.50;99.90
5118;DHT22;2578;51.622;7.046;2023-03-03T16:50:53;7.30;99.90
5118;DHT22;2578;51.622;7.046;2023-03-03T16:58:50;7.10;99.90
5118;DHT22;2578;51.622;7.046;2023-03-03T17:06:52;6.50;99.90
5118;DHT22;2578;51.622;7.046;2023-03-03T17:09:37;6.20;99.90
5118;DHT22;2578;51.622;7.046;2023-03-03T17:12:33;5.90;99.90
5118;DHT22;2578;51.622;7.046;2023-03-03T17:21:28;4.90;99.90
5118;DHT22;2578;51.622;7.046;2023-03-03T17:24:17;4.90;99.90
5118;DHT22;2578;51.622;7.046;2023-03-03T17:32:38;4.10;99.90
5118;DHT22;2578;51.622;7.046;2023-03-03T17:43:20;4.00;99.90
5118;DHT22;2578;51.622;7.046;2023-03-03T17:45:49;3.90;99.90
5118;DHT22;2578;51.622;7.046;2023-03-03T17:51:35;3.90;99.90
5118;DHT22;2578;51.622;7.046;2023-03-03T17:59:56;4.20;99.90
5118;DHT22;2578;51.622;7.046;2023-03-03T18:08:04;4.20;99.90
5118;DHT22;2578;51.622;7.046;2023-03-03T18:10:59;4.30;99.90
5118;DHT22;2578;51.622;7.046;2023-03-03T18:24:33;4.40;99.90
5118;DHT22;2578;51.622;7.046;2023-03-03T18:32:44;4.60;99.90
5118;DHT22;2578;51.622;7.046;2023-03-03T18:35:40;4.70;99.90
5118;DHT22;2578;51.622;7.046;2023-03-03T18:41:04;4.70;99.90
5118;DHT22;2578;51.622;7.046;2023-03-03T18:49:17;4.60;99.90
5118;DHT22;2578;51.622;7.046;2023-03-03T19:05:16;4.60;99.90
5118;DHT22;2578;51.622;7.046;2023-03-03T19:07:57;4.60;99.90
5118;DHT22;2578;51.622;7.046;2023-03-03T19:16:05;4.60;99.90
5118;DHT22;2578;51.622;7.046;2023-03-03T19:24:01;4.90;99.90
5118;DHT22;2578;51.622;7.046;2023-03-03T19:26:33;5.00;99.90
5118;DHT22;2578;51.622;7.046;2023-03-03T19:35:36;4.80;99.90
5118;DHT22;2578;51.622;7.046;2023-03-03T19:38:16;4.90;99.90
5118;DHT22;2578;51.622;7.046;2023-03-03T19:40:49;4.90;99.90
5118;DHT22;2578;51.622;7.046;2023-03-03T19:46:14;4.90;99.90
5118;DHT22;2578;51.622;7.046;2023-03-03T19:54:57;4.60;99.90
5118;DHT22;2578;51.622;7.046;2023-03-03T20:00:25;4.40;99.90
5118;DHT22;2578;51.622;7.046;2023-03-03T20:03:28;4.40;99.90
5118;DHT22;2578;51.622;7.046;2023-03-03T20:20:40;4.70;99.90
5118;DHT22;2578;51.622;7.046;2023-03-03T20:23:30;4.70;99.90
5118;DHT22;2578;51.622;7.046;2023-03-03T20:48:37;5.00;99.90
5118;DHT22;2578;51.622;7.046;2023-03-03T20:51:12;4.90;99.90
5118;DHT22;2578;51.622;7.046;2023-03-03T20:53:52;4.90;99.90
5118;DHT22;2578;51.622;7.046;2023-03-03T20:59:29;5.00;99.90
5118;DHT22;2578;51.622;7.046;2023-03-03T21:04:33;5.10;99.90
5118;DHT22;2578;51.622;7.046;2023-03-03T21:07:01;5.10;99.90
5118;DHT22;2578;51.622;7.046;2023-03-03T21:09:31;5.00;99.90
5118;DHT22;2578;51.622;7.046;2023-03-03T21:11:59;5.10;99.90
5118;DHT22;2578;51.622;7.046;2023-03-03T21:14:32;5.00;99.90
5118;DHT22;2578;51.622;7.046;2023-03-03T21:16:59;4.90;99.90
5118;DHT22;2578;51.622;7.046;2023-03-03T21:19:32;5.00;99.90
5118;DHT22;2578;51.622;7.046;2023-03-03T21:21:59;5.00;99.90
5118;DHT22;2578;51.622;7.046;2023-03-03T21:24:56;5.00;99.90
5118;DHT22;2578;51.622;7.046;2023-03-03T21:27:33;5.00;99.90
5118;DHT22;2578;51.622;7.046;2023-03-03T21:30:13;5.00;99.90
5118;DHT22;2578;51.622;7.046;2023-03-03T21:32:47;5.00;99.90
5118;DHT22;2578;51.622;7.046;2023-03-03T21:35:20;5.10;99.90
5118;DHT22;2578;51.622;7.046;2023-03-03T21:37:56;5.00;99.90
5118;DHT22;2578;51.622;7.046;2023-03-03T21:42:50;4.90;99.90
5118;DHT22;2578;51.622;7.046;2023-03-03T21:45:17;5.00;99.90
5118;DHT22;2578;51.622;7.046;2023-03-03T21:47:45;4.90;99.90
5118;DHT22;2578;51.622;7.046;2023-03-03T21:50:11;4.90;99.90
5118;DHT22;2578;51.622;7.046;2023-03-03T21:52:37;5.00;99.90
5118;DHT22;2578;51.622;7.046;2023-03-03T21:55:03;4.90;99.90
5118;DHT22;2578;51.622;7.046;2023-03-03T21:57:28;5.00;99.90
5118;DHT22;2578;51.622;7.046;2023-03-03T21:59:54;5.00;99.90
5118;DHT22;2578;51.622;7.046;2023-03-03T22:02:20;5.00;99.90
5118;DHT22;2578;51.622;7.046;2023-03-03T22:04:45;5.00;99.90
5118;DHT22;2578;51.622;7.046;2023-03-03T22:07:11;5.00;99.90
5118;DHT22;2578;51.622;7.046;2023-03-03T22:09:37;4.90;99.90
5118;DHT22;2578;51.622;7.046;2023-03-03T22:12:05;4.90;99.90
5118;DHT22;2578;51.622;7.046;2023-03-03T22:14:31;4.90;99.90
5118;DHT22;2578;51.622;7.046;2023-03-03T22:16:57;4.90;99.90
5118;DHT22;2578;51.622;7.046;2023-03-03T22:19:23;5.00;99.90
5118;DHT22;2578;51.622;7.046;2023-03-03T22:21:49;5.00;99.90
5118;DHT22;2578;51.622;7.046;2023-03-03T22:24:15;5.00;99.90
5118;DHT22;2578;51.622;7.046;2023-03-03T22:26:41;5.10;99.90
5118;DHT22;2578;51.622;7.046;2023-03-03T22:29:07;5.10;99.90
5118;DHT22;2578;51.622;7.046;2023-03-03T22:31:33;5.10;99.90
5118;DHT22;2578;51.622;7.046;2023-03-03T22:33:58;5.00;99.90
5118;DHT22;2578;51.622;7.046;2023-03-03T22:36:24;5.10;99.90
5118;DHT22;2578;51.622;7.046;2023-03-03T22:38:50;5.30;99.90
5118;DHT22;2578;51.622;7.046;2023-03-03T22:41:15;5.00;99.90
5118;DHT22;2578;51.622;7.046;2023-03-03T22:43:41;5.00;99.90
5118;DHT22;2578;51.622;7.046;2023-03-03T22:46:07;5.00;99.90
5118;DHT22;2578;51.622;7.046;2023-03-03T22:48:33;5.00;99.90
5118;DHT22;2578;51.622;7.046;2023-03-03T22:50:59;5.00;99.90
5118;DHT22;2578;51.622;7.046;2023-03-03T22:53:24;5.00;99.90
5118;DHT22;2578;51.622;7.046;2023-03-03T22:55:50;5.00;99.90
5118;DHT22;2578;51.622;7.046;2023-03-03T22:58:17;5.00;99.90
5118;DHT22;2578;51.622;7.046;2023-03-03T23:00:48;4.90;99.90
5118;DHT22;2578;51.622;7.046;2023-03-03T23:03:14;4.90;99.90
5118;DHT22;2578;51.622;7.046;2023-03-03T23:05:40;4.80;99.90
5118;DHT22;2578;51.622;7.046;2023-03-03T23:08:11;4.80;99.90
5118;DHT22;2578;51.622;7.046;2023-03-03T23:10:38;4.80;99.90
5118;DHT22;2578;51.622;7.046;2023-03-03T23:13:03;5.20;99.90
5118;DHT22;2578;51.622;7.046;2023-03-03T23:15:29;4.70;99.90
5118;DHT22;2578;51.622;7.046;2023-03-03T23:17:55;4.70;99.90
5118;DHT22;2578;51.622;7.046;2023-03-03T23:20:23;4.80;99.90
5118;DHT22;2578;51.622;7.046;2023-03-03T23:22:50;4.80;99.90
5118;DHT22;2578;51.622;7.046;2023-03-03T23:25:15;4.80;99.90
5118;DHT22;2578;51.622;7.046;2023-03-03T23:27:42;4.10;99.90